Adams, Nebraska
Current Conditions -  °F | °C
As of 2:55 AM on Thursday 23 Oct 2014 (Local Time) from KBIE Reporting Station
Overcast Overcast  
Wind Chill: 16°   Ceiling: 6000
Heat Index: 16°   Visibility: 10mi
Dew Point: 15°   Wind: 6mph
Humidity: 94%   Direction: 200°SSW
Pressure: 30.04"   Gusts: NA
Location:  40.46°N, 96.51°W
Report Text: KBIE 230755Z AUTO 20005KT 10SM SCT039 OVC060 16/15 A3004 RMK AO2 T01570147
Loading
Personal Weather Stations






























Interactive Weather Map
Tropical Storm Tracking
New forecast layout! Learn more

10-Day Weather Forecast

Advertisements
Track Severe Weather on mobile